Time;durP1;ratioP1;P1;durP2;ratioP2;P2;SDS_P1;SDS_P2;PMS_P1;PMS_P2;Temp;Humidity;BMP_temperature;BMP_pressure;BME280_temperature;BME280_humidity;BME280_pressure;Samples;Min_cycle;Max_cycle;Signal;HPM_P1;HPM_P2
2022/08/28 00:02:13;;;;;;;11.00;5.75;;;28.70;60.50;;;;;;5055588;28;20040;-82
2022/08/28 00:04:39;;;;;;;13.60;5.75;;;28.80;60.20;;;;;;5055170;28;20356;-83
2022/08/28 00:07:05;;;;;;;15.40;6.40;;;29.10;59.90;;;;;;5055874;28;20016;-79
2022/08/28 00:09:30;;;;;;;15.63;6.63;;;29.30;59.70;;;;;;5073064;28;20424;-79
2022/08/28 00:11:56;;;;;;;14.10;6.53;;;29.50;59.70;;;;;;5072863;28;20031;-80
2022/08/28 00:14:23;;;;;;;16.35;7.85;;;29.50;60.90;;;;;;5073126;28;20028;-78
2022/08/28 00:16:49;;;;;;;13.20;7.85;;;29.20;62.60;;;;;;5073127;28;20415;-78
2022/08/28 00:19:17;;;;;;;20.88;7.47;;;29.00;64.20;;;;;;5073436;28;20025;-81
2022/08/28 00:21:43;;;;;;;12.45;7.70;;;28.90;64.90;;;;;;5072852;28;20041;-89
2022/08/28 00:24:10;;;;;;;15.70;8.07;;;28.60;65.50;;;;;;5073047;28;20020;-79
2022/08/28 00:29:20;;;;;;;15.05;6.22;;;28.40;65.40;;;;;;5073348;28;20131;-80
2022/08/28 00:31:46;;;;;;;15.07;6.40;;;28.40;65.50;;;;;;5072945;28;20036;-83
2022/08/28 00:34:12;;;;;;;14.45;6.20;;;28.50;65.20;;;;;;5055196;28;20098;-80
2022/08/28 00:36:40;;;;;;;17.00;6.65;;;28.50;65.30;;;;;;5072547;28;20521;-79
2022/08/28 00:39:08;;;;;;;11.10;5.95;;;28.50;65.30;;;;;;5054894;28;20364;-83
2022/08/28 00:41:37;;;;;;;12.50;5.93;;;28.70;65.00;;;;;;5072867;28;20056;-82
2022/08/28 00:44:19;;;;;;;9.73;6.00;;;28.90;64.60;;;;;;5072348;28;20024;-78
2022/08/28 00:46:48;;;;;;;14.88;6.35;;;28.90;64.70;;;;;;5072202;28;20025;-78
2022/08/28 00:49:16;;;;;;;12.43;6.53;;;28.80;64.70;;;;;;5054580;28;20020;-80
2022/08/28 00:54:31;;;;;;;15.23;6.05;;;28.80;64.10;;;;;;5072857;28;20383;-83
2022/08/28 00:56:58;;;;;;;16.27;5.68;;;28.70;64.80;;;;;;5055158;28;20116;-76
2022/08/28 01:01:00;;;;;;;9.80;6.05;;;28.50;64.10;;;;;;5085712;27;1328982;-84
2022/08/28 01:03:26;;;;;;;10.02;5.97;;;28.70;64.30;;;;;;5092801;28;20032;-88
2022/08/28 01:05:52;;;;;;;15.45;12.95;;;29.00;63.60;;;;;;5110655;28;20024;-83
2022/08/28 01:08:18;;;;;;;12.82;5.97;;;29.00;63.40;;;;;;5110908;28;20440;-80
2022/08/28 01:10:49;;;;;;;12.65;10.73;;;29.00;63.00;;;;;;5092800;28;20122;-83
2022/08/28 01:13:15;;;;;;;14.20;7.05;;;28.90;63.20;;;;;;5080276;28;20023;-81
2022/08/28 01:15:42;;;;;;;13.77;5.20;;;28.70;63.70;;;;;;5072515;28;20107;-79
2022/08/28 01:18:10;;;;;;;14.32;6.07;;;28.80;63.30;;;;;;5072424;28;20439;-80
2022/08/28 01:20:41;;;;;;;11.23;5.53;;;28.80;63.40;;;;;;5090126;28;20033;-79
2022/08/28 01:23:25;;;;;;;16.00;5.70;;;28.90;63.00;;;;;;5090694;28;20048;-79
2022/08/28 01:25:51;;;;;;;12.55;5.30;;;29.00;62.80;;;;;;5089888;28;20039;-80
2022/08/28 01:28:17;;;;;;;18.40;5.40;;;29.00;62.60;;;;;;5072020;28;20036;-84
2022/08/28 01:30:46;;;;;;;12.45;5.32;;;28.80;62.80;;;;;;5090316;28;20016;-86
2022/08/28 01:33:14;;;;;;;12.35;5.22;;;28.80;63.10;;;;;;5072109;28;20021;-79
2022/08/28 01:35:46;;;;;;;13.55;5.55;;;28.70;62.80;;;;;;5071890;28;20111;-89
2022/08/28 01:38:12;;;;;;;8.63;5.50;;;28.70;62.90;;;;;;5071839;28;20124;-79
2022/08/28 01:40:41;;;;;;;12.93;5.43;;;28.60;62.80;;;;;;5071797;28;20044;-81
2022/08/28 01:43:20;;;;;;;9.27;4.80;;;28.50;63.20;;;;;;5089708;28;20017;-80
2022/08/28 01:45:51;;;;;;;13.50;5.07;;;28.50;63.70;;;;;;5071914;28;20028;-81
2022/08/28 01:48:18;;;;;;;13.95;5.22;;;28.40;63.50;;;;;;5071542;28;20016;-80
2022/08/28 01:50:44;;;;;;;8.18;4.95;;;28.20;63.50;;;;;;5089731;28;20021;-79
2022/08/28 01:53:14;;;;;;;10.70;5.18;;;28.40;63.50;;;;;;5089744;28;20414;-80
2022/08/28 01:55:40;;;;;;;10.27;4.95;;;28.50;63.10;;;;;;5089706;28;20031;-83
2022/08/28 01:58:07;;;;;;;8.82;5.18;;;28.30;63.40;;;;;;5089914;28;20378;-79
2022/08/28 02:00:33;;;;;;;9.60;5.00;;;28.30;63.30;;;;;;5070557;28;20066;-78
2022/08/28 02:02:59;;;;;;;11.82;5.30;;;28.10;63.90;;;;;;5089272;28;20032;-78
2022/08/28 02:05:29;;;;;;;11.98;5.22;;;28.10;63.80;;;;;;5089017;28;20030;-82
2022/08/28 02:07:56;;;;;;;10.13;5.10;;;28.10;64.10;;;;;;5089467;28;20455;-84
2022/08/28 02:10:24;;;;;;;10.98;5.43;;;28.20;63.80;;;;;;5068881;28;20028;-80
2022/08/28 02:12:54;;;;;;;10.07;5.30;;;28.30;63.30;;;;;;5058188;28;20419;-79
2022/08/28 02:15:21;;;;;;;9.15;5.10;;;28.50;63.00;;;;;;5057814;28;20115;-79
2022/08/28 02:17:47;;;;;;;9.43;5.10;;;28.50;63.10;;;;;;5057326;28;20048;-78
2022/08/28 02:20:13;;;;;;;11.43;5.35;;;28.60;62.80;;;;;;5075742;28;20086;-80
2022/08/28 02:22:40;;;;;;;7.25;4.90;;;28.50;62.60;;;;;;5057574;28;20119;-78
2022/08/28 02:25:07;;;;;;;14.80;5.13;;;28.50;62.90;;;;;;5075304;28;20033;-78
2022/08/28 02:27:33;;;;;;;9.10;5.40;;;28.60;62.60;;;;;;5057749;28;20028;-79
2022/08/28 02:29:58;;;;;;;9.52;4.85;;;28.60;62.50;;;;;;5057703;28;20431;-88
2022/08/28 02:32:25;;;;;;;11.38;5.13;;;28.40;62.50;;;;;;5075271;28;20021;-80
2022/08/28 02:34:52;;;;;;;8.10;4.72;;;28.30;62.60;;;;;;5075689;28;20101;-78
2022/08/28 02:37:19;;;;;;;9.75;5.18;;;28.30;62.90;;;;;;5057087;28;20387;-78
2022/08/28 02:39:46;;;;;;;8.25;4.65;;;28.20;63.00;;;;;;5056933;28;20415;-81
2022/08/28 02:42:11;;;;;;;10.32;4.88;;;28.30;61.90;;;;;;5057530;28;20024;-92
2022/08/28 02:44:37;;;;;;;11.38;5.40;;;28.40;62.00;;;;;;5057171;28;20044;-78
2022/08/28 02:47:03;;;;;;;18.48;6.55;;;28.60;61.70;;;;;;5074790;28;20021;-82
2022/08/28 02:49:30;;;;;;;18.70;7.88;;;28.80;62.40;;;;;;5057791;28;20577;-85
2022/08/28 02:51:56;;;;;;;11.68;6.07;;;28.80;64.50;;;;;;5058115;28;20035;-81
2022/08/28 02:54:23;;;;;;;20.45;9.55;;;28.40;65.70;;;;;;5075282;28;20021;-81
2022/08/28 02:56:48;;;;;;;14.98;13.48;;;28.00;66.70;;;;;;5057127;28;20462;-80
2022/08/28 02:59:14;;;;;;;30.58;27.15;;;27.60;67.20;;;;;;5074904;28;20552;-77
2022/08/28 03:01:40;;;;;;;8.75;6.38;;;27.50;67.70;;;;;;5057318;28;20024;-82
2022/08/28 03:04:06;;;;;;;12.05;10.90;;;27.40;67.80;;;;;;5056528;28;20395;-81
2022/08/28 03:06:32;;;;;;;39.30;35.72;;;27.70;66.90;;;;;;5056568;28;20075;-78
2022/08/28 03:08:58;;;;;;;23.58;21.58;;;27.90;65.90;;;;;;5074832;28;20024;-80
2022/08/28 03:11:24;;;;;;;10.95;9.27;;;27.90;65.80;;;;;;5056686;28;20032;-82
2022/08/28 03:13:50;;;;;;;16.55;14.68;;;27.60;67.60;;;;;;5074586;28;20016;-83
2022/08/28 03:16:17;;;;;;;9.50;6.93;;;27.10;67.40;;;;;;5056822;28;20020;-80
2022/08/28 03:20:10;;;;;;;10.13;6.10;;;26.90;67.60;;;;;;5091281;27;20374;-85
2022/08/28 03:25:22;;;;;;;9.95;6.15;;;27.10;67.70;;;;;;5090617;28;20073;-78
2022/08/28 03:27:48;;;;;;;12.90;10.10;;;27.10;68.00;;;;;;5089384;28;20024;-84
2022/08/28 03:30:14;;;;;;;15.10;11.60;;;26.80;69.60;;;;;;5090444;28;20024;-81
2022/08/28 03:32:40;;;;;;;11.82;9.57;;;26.80;69.40;;;;;;5090619;28;20077;-80
2022/08/28 03:35:06;;;;;;;19.88;16.83;;;27.30;68.10;;;;;;5089488;28;20101;-81
2022/08/28 03:37:32;;;;;;;17.58;13.70;;;27.50;68.10;;;;;;5089435;28;20467;-78
2022/08/28 03:39:58;;;;;;;13.07;6.38;;;27.50;67.20;;;;;;5090013;28;20068;-78
2022/08/28 03:42:24;;;;;;;9.93;6.50;;;27.50;67.30;;;;;;5088821;28;20024;-80
2022/08/28 03:44:50;;;;;;;9.43;6.68;;;27.70;66.70;;;;;;5090723;28;20081;-77
2022/08/28 03:47:16;;;;;;;12.63;10.27;;;27.80;67.20;;;;;;5090423;28;20142;-82
2022/08/28 03:49:44;;;;;;;10.10;6.90;;;27.30;68.50;;;;;;5089217;28;20028;-79
2022/08/28 03:52:10;;;;;;;10.93;9.48;;;27.00;69.40;;;;;;5089878;28;20107;-79
2022/08/28 03:54:35;;;;;;;25.70;23.10;;;27.20;68.40;;;;;;5088521;28;20450;-80
2022/08/28 03:57:01;;;;;;;18.13;16.38;;;27.60;67.50;;;;;;5090195;28;20021;-79
2022/08/28 03:59:27;;;;;;;11.65;7.18;;;28.00;67.20;;;;;;5088426;28;20032;-80
2022/08/28 04:01:53;;;;;;;10.25;7.40;;;28.20;66.40;;;;;;5089565;28;20024;-80
2022/08/28 04:04:19;;;;;;;8.13;6.82;;;28.40;66.30;;;;;;5089590;28;20084;-79
2022/08/28 04:06:45;;;;;;;12.27;7.05;;;28.60;66.10;;;;;;5089653;28;20017;-79
2022/08/28 04:09:11;;;;;;;14.80;8.07;;;28.20;67.80;;;;;;5087970;28;20475;-79
2022/08/28 04:11:41;;;;;;;13.77;9.60;;;28.00;67.90;;;;;;5088478;28;20058;-81
2022/08/28 04:14:08;;;;;;;11.83;8.37;;;28.20;67.30;;;;;;5069199;28;20016;-79
2022/08/28 04:16:34;;;;;;;8.85;7.18;;;28.40;66.70;;;;;;5067715;28;20261;-79
2022/08/28 04:18:59;;;;;;;11.57;8.10;;;28.20;68.20;;;;;;5067362;28;20049;-79
2022/08/28 04:21:25;;;;;;;13.25;8.23;;;27.80;69.40;;;;;;5067708;28;20094;-79
2022/08/28 04:23:52;;;;;;;9.55;7.30;;;27.70;68.90;;;;;;5084567;28;20028;-79
2022/08/28 04:26:20;;;;;;;12.52;9.02;;;27.60;69.50;;;;;;5067496;28;20052;-80
2022/08/28 04:28:47;;;;;;;14.32;7.70;;;27.60;70.20;;;;;;5067738;28;20120;-79
2022/08/28 04:31:13;;;;;;;10.82;8.20;;;27.80;69.40;;;;;;5057161;28;20131;-80
2022/08/28 04:33:40;;;;;;;12.02;6.88;;;28.10;68.10;;;;;;5055786;28;20377;-81
2022/08/28 04:36:08;;;;;;;13.07;7.90;;;28.20;67.90;;;;;;5055554;28;20460;-79
2022/08/28 04:38:34;;;;;;;12.98;7.60;;;28.10;68.20;;;;;;5054070;28;20035;-79
2022/08/28 04:41:04;;;;;;;9.23;7.45;;;28.10;68.00;;;;;;5053912;28;20252;-80
2022/08/28 04:43:29;;;;;;;13.52;8.82;;;28.00;67.80;;;;;;5054164;28;20547;-81
2022/08/28 04:45:55;;;;;;;9.32;6.93;;;28.00;68.90;;;;;;5054294;28;20116;-81
2022/08/28 04:48:21;;;;;;;10.65;6.80;;;27.90;69.10;;;;;;5055057;28;20036;-79
2022/08/28 04:50:48;;;;;;;10.43;7.75;;;27.70;69.60;;;;;;5055376;28;20367;-79
2022/08/28 04:53:16;;;;;;;10.85;7.20;;;27.40;70.50;;;;;;5053913;28;20368;-82
2022/08/28 04:55:44;;;;;;;9.35;6.85;;;27.50;69.90;;;;;;5054897;28;20028;-79
2022/08/28 04:58:11;;;;;;;9.23;6.57;;;27.60;69.90;;;;;;5054931;28;20103;-79
2022/08/28 05:00:41;;;;;;;8.25;6.43;;;27.60;70.10;;;;;;5055022;28;20029;-78
2022/08/28 05:03:07;;;;;;;;;;;27.60;69.50;;;;;;5055510;28;20066;-78
2022/08/28 05:05:33;;;;;;;8.80;6.22;;;27.50;69.70;;;;;;5087313;28;19909;-80
2022/08/28 05:07:58;;;;;;;9.25;6.18;;;27.30;70.30;;;;;;5055088;28;20052;-79
2022/08/28 05:10:25;;;;;;;9.48;6.22;;;26.90;71.00;;;;;;5070132;28;20071;-79
2022/08/28 05:12:50;;;;;;;9.50;5.88;;;26.80;71.60;;;;;;5053367;28;20025;-80
2022/08/28 05:15:16;;;;;;;10.48;6.43;;;26.70;71.80;;;;;;5053546;28;20039;-79
2022/08/28 05:17:42;;;;;;;10.00;6.50;;;26.80;72.30;;;;;;5054337;28;20082;-78
2022/08/28 05:20:08;;;;;;;8.90;6.10;;;27.40;71.20;;;;;;5053379;28;20098;-78
2022/08/28 05:22:34;;;;;;;10.10;7.57;;;27.90;70.60;;;;;;5054585;28;20036;-79
2022/08/28 05:25:00;;;;;;;9.40;6.65;;;28.20;69.60;;;;;;5054428;28;20368;-79
2022/08/28 05:27:28;;;;;;;11.52;7.57;;;28.70;68.20;;;;;;5054586;28;20025;-79
2022/08/28 05:29:53;;;;;;;15.18;7.63;;;29.00;67.60;;;;;;5053358;28;20413;-79
2022/08/28 05:32:20;;;;;;;10.25;7.57;;;29.20;67.10;;;;;;5054252;28;20495;-79
2022/08/28 05:34:46;;;;;;;9.50;7.93;;;29.40;67.20;;;;;;5053251;28;20028;-81
2022/08/28 05:37:13;;;;;;;11.95;8.10;;;29.50;67.90;;;;;;5069829;28;20021;-80
2022/08/28 05:39:39;;;;;;;11.15;6.95;;;29.60;67.70;;;;;;5054110;28;20112;-80
2022/08/28 05:42:04;;;;;;;12.25;7.45;;;29.50;67.60;;;;;;5053499;28;20071;-80
2022/08/28 05:44:30;;;;;;;11.85;7.32;;;29.60;67.50;;;;;;5054486;28;20086;-82
2022/08/28 05:46:56;;;;;;;10.35;6.82;;;29.60;67.60;;;;;;5054373;28;20025;-81
2022/08/28 05:49:22;;;;;;;10.20;6.93;;;29.90;66.60;;;;;;5054338;28;20025;-81
2022/08/28 05:51:48;;;;;;;10.93;6.35;;;30.10;65.80;;;;;;5053102;28;20025;-83
2022/08/28 05:54:15;;;;;;;8.90;7.20;;;30.10;65.80;;;;;;5054661;28;20044;-83
2022/08/28 05:56:43;;;;;;;11.25;6.78;;;29.60;66.20;;;;;;5054210;28;20029;-82
2022/08/28 05:59:09;;;;;;;8.38;6.75;;;29.80;67.00;;;;;;5053206;28;20032;-83
2022/08/28 06:01:39;;;;;;;11.98;6.47;;;30.20;66.30;;;;;;5054284;28;20021;-82
2022/08/28 06:04:23;;;;;;;9.30;5.95;;;30.40;65.80;;;;;;5052812;28;20028;-82
2022/08/28 06:06:49;;;;;;;10.18;5.85;;;30.60;64.70;;;;;;5054199;28;20470;-83
2022/08/28 06:09:28;;;;;;;9.18;5.57;;;30.80;64.20;;;;;;5053740;28;20508;-82
2022/08/28 06:11:55;;;;;;;9.30;6.30;;;30.90;63.30;;;;;;5054116;28;20021;-83
2022/08/28 06:14:21;;;;;;;12.30;5.93;;;30.80;63.60;;;;;;5052762;28;20067;-85
2022/08/28 06:16:51;;;;;;;9.30;5.18;;;30.80;62.70;;;;;;5054219;28;20444;-83
2022/08/28 06:19:19;;;;;;;8.63;5.18;;;30.80;62.70;;;;;;5053800;28;20400;-83
2022/08/28 06:21:50;;;;;;;9.20;5.78;;;30.70;63.00;;;;;;5052906;28;20086;-81
2022/08/28 06:24:16;;;;;;;9.07;5.30;;;30.40;64.70;;;;;;5053075;28;20040;-93
2022/08/28 06:26:42;;;;;;;9.93;5.68;;;30.10;63.60;;;;;;5053880;28;20036;-83
2022/08/28 06:29:10;;;;;;;9.77;6.18;;;29.80;64.60;;;;;;5053838;28;20029;-81
2022/08/28 06:31:36;;;;;;;9.55;6.28;;;29.90;65.40;;;;;;5052327;28;20096;-81
2022/08/28 06:34:02;;;;;;;9.05;6.00;;;30.20;65.00;;;;;;5053298;28;20025;-81
2022/08/28 06:36:31;;;;;;;8.70;5.53;;;30.20;65.40;;;;;;5053187;28;20108;-80
2022/08/28 06:38:58;;;;;;;8.75;5.88;;;30.50;65.20;;;;;;5053115;28;20041;-80
2022/08/28 06:41:26;;;;;;;8.98;5.47;;;30.70;64.60;;;;;;5051869;28;20029;-82
2022/08/28 06:43:52;;;;;;;11.02;5.82;;;30.90;63.70;;;;;;5051982;28;20029;-82
2022/08/28 06:46:18;;;;;;;9.45;5.78;;;31.00;63.70;;;;;;5051980;28;20491;-80
2022/08/28 06:48:43;;;;;;;8.05;5.70;;;31.10;62.80;;;;;;5051959;28;20025;-82
2022/08/28 06:51:11;;;;;;;8.60;5.85;;;31.10;62.70;;;;;;5052591;28;20024;-81
2022/08/28 06:53:38;;;;;;;11.32;6.78;;;31.10;62.80;;;;;;5053176;28;20025;-81
2022/08/28 06:56:10;;;;;;;13.20;5.53;;;30.80;64.00;;;;;;5051957;28;20486;-83
2022/08/28 06:58:39;;;;;;;11.52;5.90;;;30.60;63.40;;;;;;5053176;28;20021;-82
2022/08/28 07:01:27;;;;;;;9.27;6.10;;;30.30;63.70;;;;;;5053549;28;20028;-84
2022/08/28 07:03:55;;;;;;;13.65;10.15;;;30.30;63.40;;;;;;5053202;28;20028;-85
2022/08/28 07:06:22;;;;;;;10.77;6.40;;;30.40;63.60;;;;;;5052320;28;20485;-83
2022/08/28 07:08:48;;;;;;;10.00;6.22;;;30.30;64.20;;;;;;5052050;28;20052;-82
2022/08/28 07:11:27;;;;;;;9.38;5.75;;;30.40;64.00;;;;;;5068820;28;20479;-83
2022/08/28 07:13:54;;;;;;;7.97;5.75;;;30.70;63.10;;;;;;5052070;28;20029;-83
2022/08/28 07:16:22;;;;;;;12.68;5.80;;;30.80;63.10;;;;;;5052299;28;20048;-82
2022/08/28 07:18:50;;;;;;;10.02;5.82;;;30.40;64.10;;;;;;5051997;28;20048;-85
2022/08/28 07:21:16;;;;;;;9.23;5.72;;;30.40;63.90;;;;;;5052289;28;20028;-87
2022/08/28 07:23:43;;;;;;;8.02;5.88;;;30.40;64.30;;;;;;5053213;28;20025;-86
2022/08/28 07:26:12;;;;;;;10.48;5.47;;;30.40;64.40;;;;;;5053035;28;20178;-81
2022/08/28 07:28:38;;;;;;;7.57;5.60;;;30.10;64.30;;;;;;5053575;28;20033;-85
2022/08/28 07:31:12;;;;;;;11.38;5.72;;;30.30;64.10;;;;;;5053149;28;20028;-86
2022/08/28 07:33:38;;;;;;;10.73;6.00;;;30.60;63.30;;;;;;5052153;28;20492;-82
2022/08/28 07:36:10;;;;;;;7.40;5.47;;;31.00;62.60;;;;;;5053311;28;20025;-88
2022/08/28 07:38:36;;;;;;;11.93;5.40;;;31.50;62.30;;;;;;5051797;28;20082;-85
2022/08/28 07:41:02;;;;;;;7.07;4.97;;;31.80;60.40;;;;;;5051996;28;20037;-86
2022/08/28 07:46:13;;;;;;;8.95;5.40;;;32.20;60.00;;;;;;5053632;28;20586;-80
2022/08/28 07:48:40;;;;;;;9.55;5.55;;;32.40;60.20;;;;;;5052700;28;20029;-80
2022/08/28 07:51:07;;;;;;;11.68;5.03;;;32.50;60.40;;;;;;5052901;28;20511;-87
2022/08/28 07:53:35;;;;;;;7.80;5.22;;;32.50;59.90;;;;;;5053244;28;20025;-86
2022/08/28 07:56:01;;;;;;;12.02;5.90;;;32.40;60.00;;;;;;5052895;28;20100;-79
2022/08/28 07:58:27;;;;;;;9.85;5.20;;;32.30;60.70;;;;;;5051846;28;20037;-88
2022/08/28 08:00:54;;;;;;;9.30;5.55;;;32.40;60.10;;;;;;5068364;28;20072;-86
2022/08/28 08:03:21;;;;;;;9.43;5.40;;;32.40;59.20;;;;;;5053336;28;20021;-93
2022/08/28 08:05:59;;;;;;;10.98;4.95;;;32.30;60.20;;;;;;5055587;28;20025;-84
2022/08/28 08:08:24;;;;;;;9.10;5.38;;;32.40;60.20;;;;;;5072481;28;20120;-80
2022/08/28 08:10:58;;;;;;;7.22;5.00;;;32.40;59.70;;;;;;5057832;28;20033;-79
2022/08/28 08:13:24;;;;;;;12.50;5.78;;;32.40;60.00;;;;;;5055468;28;20025;-87
2022/08/28 08:15:50;;;;;;;6.75;4.70;;;32.60;59.70;;;;;;5056178;28;20032;-84
2022/08/28 08:18:16;;;;;;;8.90;5.07;;;32.80;59.50;;;;;;5056646;28;20040;-82
2022/08/28 08:20:41;;;;;;;7.32;4.88;;;33.00;59.90;;;;;;5056347;28;20040;-83
2022/08/28 08:23:07;;;;;;;14.40;4.78;;;32.90;59.60;;;;;;5072140;28;20495;-85
2022/08/28 08:25:33;;;;;;;7.93;4.90;;;32.80;59.70;;;;;;5056613;28;20025;-85
2022/08/28 08:27:59;;;;;;;8.98;5.38;;;32.90;59.50;;;;;;5055230;28;20434;-82
2022/08/28 08:30:24;;;;;;;10.65;5.60;;;33.00;59.60;;;;;;5056204;28;20025;-88
2022/08/28 08:32:50;;;;;;;7.88;4.97;;;32.90;60.20;;;;;;5055024;28;20472;-82
2022/08/28 08:35:16;;;;;;;8.02;4.90;;;33.00;60.00;;;;;;5054741;28;20036;-85
2022/08/28 08:37:42;;;;;;;10.13;5.40;;;32.90;59.90;;;;;;5071505;28;20025;-86
2022/08/28 08:40:14;;;;;;;7.63;4.70;;;33.10;59.30;;;;;;5055875;28;20468;-83
2022/08/28 08:42:46;;;;;;;8.95;4.78;;;33.20;59.40;;;;;;5055638;28;20033;-83
2022/08/28 08:45:16;;;;;;;10.02;5.18;;;33.20;58.50;;;;;;5054751;28;20044;-86
2022/08/28 08:47:54;;;;;;;7.35;5.07;;;33.10;58.80;;;;;;5055800;28;20021;-81
2022/08/28 08:50:28;;;;;;;10.25;4.93;;;33.20;59.20;;;;;;5055581;28;20022;-83
2022/08/28 08:53:31;;;;;;;10.07;5.30;;;33.40;58.80;;;;;;5054423;28;20025;-86
2022/08/28 08:55:57;;;;;;;7.72;5.13;;;33.40;58.00;;;;;;5056065;28;20032;-80
2022/08/28 08:58:39;;;;;;;9.55;5.10;;;33.30;58.40;;;;;;5054885;28;20028;-84
2022/08/28 09:01:33;;;;;;;22.88;20.65;;;33.00;58.80;;;;;;5054515;28;20028;-84
2022/08/28 09:04:08;;;;;;;8.25;4.95;;;33.00;59.10;;;;;;5055416;28;20077;-86
2022/08/28 09:06:51;;;;;;;6.85;4.20;;;33.30;58.90;;;;;;5055580;28;20025;-87
2022/08/28 09:09:31;;;;;;;8.70;4.22;;;33.50;57.50;;;;;;5055361;28;20032;-93
2022/08/28 09:11:58;;;;;;;7.65;4.60;;;33.50;57.10;;;;;;5055115;28;20036;-85
2022/08/28 09:14:33;;;;;;;9.60;5.20;;;33.70;57.10;;;;;;5054331;28;20025;-81
2022/08/28 09:17:00;;;;;;;9.32;4.50;;;33.70;57.30;;;;;;5054312;28;20079;-82
2022/08/28 09:19:26;;;;;;;7.70;4.68;;;33.70;56.70;;;;;;5053976;28;20055;-79
2022/08/28 09:21:52;;;;;;;10.07;4.85;;;33.80;56.20;;;;;;5054965;28;20100;-82
2022/08/28 09:24:27;;;;;;;7.30;4.18;;;33.90;55.90;;;;;;5055091;28;20100;-82
2022/08/28 09:27:29;;;;;;;6.28;4.60;;;33.90;55.10;;;;;;5054220;28;20395;-90
2022/08/28 09:30:05;;;;;;;8.07;4.40;;;34.10;56.80;;;;;;5055059;28;20433;-87
2022/08/28 09:32:40;;;;;;;7.72;4.72;;;34.20;56.40;;;;;;5054898;28;20062;-78
2022/08/28 09:35:31;;;;;;;8.10;4.80;;;34.30;55.60;;;;;;5057174;28;20444;-92
2022/08/28 09:38:20;;;;;;;7.82;4.80;;;34.50;53.50;;;;;;5054838;28;20029;-85
2022/08/28 09:43:32;;;;;;;9.32;4.95;;;34.80;57.20;;;;;;5055239;28;20078;-83
2022/08/28 09:46:26;;;;;;;11.75;5.05;;;34.80;54.90;;;;;;5054660;28;20052;-78
2022/08/28 09:49:05;;;;;;;10.50;5.03;;;35.10;52.00;;;;;;5054400;28;20099;-78
2022/08/28 09:51:37;;;;;;;7.23;4.67;;;35.40;54.20;;;;;;5053282;28;20437;-79
2022/08/28 09:54:17;;;;;;;6.63;4.43;;;35.40;54.10;;;;;;5069506;28;20274;-83
2022/08/28 09:56:43;;;;;;;5.50;4.22;;;35.50;54.40;;;;;;5054215;28;20099;-80
2022/08/28 09:59:28;;;;;;;5.97;4.07;;;35.10;52.80;;;;;;5053073;28;20044;-80
2022/08/28 10:02:12;;;;;;;11.77;4.20;;;34.90;54.60;;;;;;5052820;28;20468;-79
2022/08/28 10:04:56;;;;;;;8.15;4.10;;;34.90;53.90;;;;;;5054302;28;20028;-82
2022/08/28 10:07:44;;;;;;;9.27;4.18;;;34.60;53.00;;;;;;5053486;28;20079;-88
2022/08/28 10:10:37;;;;;;;11.95;5.13;;;34.80;55.50;;;;;;5053222;28;20468;-85
2022/08/28 10:13:44;;;;;;;7.05;4.28;;;35.30;53.80;;;;;;5049621;28;20040;-80
2022/08/28 10:16:33;;;;;;;8.80;4.20;;;35.90;54.20;;;;;;5032133;28;20036;-77
2022/08/28 10:19:35;;;;;;;8.23;4.75;;;36.00;53.80;;;;;;5048909;28;20046;-86
2022/08/28 10:22:17;;;;;;;7.07;4.80;;;36.20;54.40;;;;;;5048891;28;20457;-85
2022/08/28 10:25:02;;;;;;;6.57;4.85;;;36.40;54.50;;;;;;5015731;28;20041;-86
2022/08/28 10:27:42;;;;;;;8.73;5.47;;;36.50;54.70;;;;;;5031814;28;20061;-88
2022/08/28 10:30:16;;;;;;;9.68;4.25;;;36.40;54.80;;;;;;5032408;28;20361;-80
2022/08/28 10:33:10;;;;;;;8.43;5.00;;;36.30;54.60;;;;;;5032384;28;20029;-87
2022/08/28 10:36:00;;;;;;;15.35;5.35;;;35.80;55.20;;;;;;5015672;28;20026;-91
2022/08/28 10:38:43;;;;;;;7.85;5.70;;;35.70;56.30;;;;;;5015482;28;20021;-85
2022/08/28 10:41:17;;;;;;;12.13;5.38;;;35.70;56.30;;;;;;5032218;28;20033;-81
2022/08/28 10:43:50;;;;;;;7.55;6.45;;;36.10;55.80;;;;;;5015082;28;20497;-81
2022/08/28 10:46:23;;;;;;;9.40;5.13;;;36.10;56.20;;;;;;5031852;28;20076;-81
2022/08/28 10:48:48;;;;;;;10.20;5.93;;;36.20;56.30;;;;;;5015214;28;20021;-78
2022/08/28 10:51:43;;;;;;;7.75;6.95;;;36.40;56.80;;;;;;5053653;28;20108;-94
2022/08/28 10:54:32;;;;;;;10.82;6.25;;;36.10;56.60;;;;;;5052922;28;20474;-83
2022/08/28 10:57:16;;;;;;;10.45;5.30;;;36.30;56.80;;;;;;5053811;28;20036;-83
2022/08/28 10:59:47;;;;;;;10.07;5.45;;;36.50;56.60;;;;;;5052588;28;20037;-87
2022/08/28 11:02:15;;;;;;;7.95;4.97;;;36.80;57.50;;;;;;5053364;28;20523;-79
2022/08/28 11:04:42;;;;;;;8.27;5.60;;;36.80;57.20;;;;;;5052045;28;20067;-86
2022/08/28 11:07:13;;;;;;;13.60;12.38;;;36.60;56.50;;;;;;5068802;28;20027;-89
2022/08/28 11:09:44;;;;;;;9.70;7.20;;;36.40;56.30;;;;;;5053216;28;20021;-89
2022/08/28 11:12:17;;;;;;;11.57;10.43;;;36.40;57.00;;;;;;5053636;28;20464;-88
2022/08/28 11:14:46;;;;;;;9.45;8.43;;;36.40;56.30;;;;;;5053171;28;20086;-83
2022/08/28 11:17:38;;;;;;;10.23;9.23;;;36.40;55.90;;;;;;5069017;28;20028;-86
2022/08/28 11:20:23;;;;;;;9.52;8.63;;;36.20;56.30;;;;;;5053668;28;20392;-87
2022/08/28 11:23:10;;;;;;;12.65;11.38;;;36.10;56.80;;;;;;5052681;28;20090;-86
2022/08/28 11:26:05;;;;;;;11.60;10.02;;;36.10;56.60;;;;;;5052592;28;20480;-83
2022/08/28 11:28:37;;;;;;;11.45;9.73;;;36.10;56.30;;;;;;5053206;28;20116;-91
2022/08/28 11:31:02;;;;;;;9.48;8.32;;;36.20;56.80;;;;;;5053994;28;20033;-86
2022/08/28 11:33:46;;;;;;;8.55;6.72;;;36.30;55.80;;;;;;5051804;28;20071;-87
2022/08/28 11:36:32;;;;;;;11.93;7.25;;;36.30;55.40;;;;;;5052449;28;20032;-90
2022/08/28 11:39:12;;;;;;;9.98;6.03;;;36.40;55.40;;;;;;5051845;28;20060;-84
2022/08/28 11:41:39;;;;;;;;;;;36.10;54.60;;;;;;5057053;28;20047;-82
2022/08/28 11:44:13;;;;;;;9.40;5.93;;;36.10;55.00;;;;;;5057197;28;20236;-87
2022/08/28 11:46:40;;;;;;;7.78;5.68;;;36.20;54.60;;;;;;5056066;28;20029;-85
2022/08/28 11:49:25;;;;;;;8.82;5.38;;;36.40;55.20;;;;;;5055538;28;20021;-85
2022/08/28 11:52:02;;;;;;;7.75;5.60;;;36.30;53.70;;;;;;5055761;28;20032;-84
2022/08/28 11:54:58;;;;;;;8.23;5.55;;;36.00;54.10;;;;;;5056374;28;20048;-90
2022/08/28 11:58:02;;;;;;;8.15;5.57;;;35.90;53.30;;;;;;5057445;28;20032;-88
2022/08/28 12:00:58;;;;;;;9.43;5.20;;;35.90;54.50;;;;;;5055993;28;20064;-90
2022/08/28 12:03:52;;;;;;;10.02;5.05;;;35.90;54.80;;;;;;5055960;28;20077;-86
2022/08/28 12:06:43;;;;;;;8.73;5.18;;;35.90;53.80;;;;;;5072866;28;20021;-84
2022/08/28 12:09:37;;;;;;;8.50;5.70;;;36.00;52.40;;;;;;5056861;28;20099;-90
2022/08/28 12:12:12;;;;;;;8.07;5.00;;;35.70;53.40;;;;;;5055279;28;20116;-89
2022/08/28 12:14:38;;;;;;;8.50;5.35;;;35.60;53.30;;;;;;5056639;28;20104;-85
2022/08/28 12:17:22;;;;;;;8.15;5.55;;;35.40;53.30;;;;;;5055426;28;20021;-86
2022/08/28 12:20:09;;;;;;;9.20;5.20;;;35.20;53.50;;;;;;5055116;28;20048;-83
2022/08/28 12:23:00;;;;;;;8.82;5.90;;;35.20;53.70;;;;;;5056436;28;20024;-92
2022/08/28 12:25:38;;;;;;;6.68;5.55;;;35.30;54.20;;;;;;5056505;28;20472;-88
2022/08/28 12:28:17;;;;;;;7.25;5.60;;;35.30;54.40;;;;;;5054712;28;20033;-87
2022/08/28 12:31:06;;;;;;;10.83;5.80;;;35.40;54.90;;;;;;5056592;28;20060;-86
2022/08/28 12:33:50;;;;;;;7.10;5.25;;;35.50;54.50;;;;;;5034245;28;20034;-85
2022/08/28 12:36:18;;;;;;;6.85;4.75;;;35.50;54.20;;;;;;5017951;28;20032;-81
2022/08/28 12:38:52;;;;;;;8.18;6.40;;;35.60;53.40;;;;;;5050430;28;20065;-90
2022/08/28 12:41:17;;;;;;;9.32;5.20;;;35.80;54.40;;;;;;5018160;28;20503;-95
2022/08/28 12:43:47;;;;;;;8.65;4.93;;;35.70;54.10;;;;;;5017320;28;20037;-81
2022/08/28 12:46:31;;;;;;;12.10;5.93;;;35.70;53.80;;;;;;5017748;28;20036;-86
2022/08/28 12:49:00;;;;;;;6.82;4.97;;;35.40;54.10;;;;;;5017026;28;20018;-80
2022/08/28 12:51:34;;;;;;;7.03;5.25;;;35.40;55.10;;;;;;5033528;28;20152;-89
2022/08/28 12:54:07;;;;;;;11.68;5.70;;;35.50;54.50;;;;;;5034180;28;20492;-79
2022/08/28 12:56:36;;;;;;;8.48;5.07;;;35.70;54.20;;;;;;5033532;28;20484;-81
2022/08/28 12:59:25;;;;;;;7.43;5.03;;;35.70;54.40;;;;;;5033954;28;20037;-84
2022/08/28 13:01:51;;;;;;;8.70;6.13;;;35.80;54.30;;;;;;5033640;28;20026;-85
2022/08/28 13:04:39;;;;;;;11.02;5.90;;;35.40;55.90;;;;;;5017357;28;20072;-94
2022/08/28 13:07:17;;;;;;;6.85;5.63;;;35.50;55.20;;;;;;5017337;28;20107;-86
2022/08/28 13:09:50;;;;;;;8.38;4.97;;;35.60;56.10;;;;;;5037555;28;20068;-82
2022/08/28 13:12:38;;;;;;;8.98;6.05;;;35.80;55.60;;;;;;5070637;28;20021;-95
2022/08/28 13:15:05;;;;;;;9.13;5.30;;;35.90;55.90;;;;;;5071689;28;20036;-90
2022/08/28 13:17:48;;;;;;;8.02;5.60;;;36.00;55.30;;;;;;5055175;28;20100;-78
2022/08/28 13:20:35;;;;;;;11.75;7.28;;;35.70;54.70;;;;;;5056185;28;20142;-84